createdAt,value
2019-01-11T00:00:16.836Z,1018.74
2019-01-11T00:01:16.816Z,1018.75
2019-01-11T00:02:16.807Z,1018.71
2019-01-11T00:03:16.861Z,1018.66
2019-01-11T00:04:16.787Z,1018.68
2019-01-11T00:05:16.775Z,1018.63
2019-01-11T00:06:16.769Z,1018.62
2019-01-11T00:07:16.752Z,1018.61
2019-01-11T00:08:16.744Z,1018.61
2019-01-11T00:09:16.740Z,1018.59
2019-01-11T00:10:16.716Z,1018.66
2019-01-11T00:11:16.712Z,1018.64
2019-01-11T00:12:16.700Z,1018.68
2019-01-11T00:13:16.689Z,1018.65
2019-01-11T00:14:16.706Z,1018.65
2019-01-11T00:15:16.670Z,1018.66
2019-01-11T00:16:16.659Z,1018.62
2019-01-11T00:17:16.654Z,1018.61
2019-01-11T00:18:16.630Z,1018.63
2019-01-11T00:19:16.676Z,1018.61
2019-01-11T00:20:16.621Z,1018.62
2019-01-11T00:21:16.598Z,1018.62
2019-01-11T00:22:16.595Z,1018.57
2019-01-11T00:23:16.580Z,1018.56
2019-01-11T00:24:16.572Z,1018.53
2019-01-11T00:25:16.568Z,1018.52
2019-01-11T00:26:16.549Z,1018.51
2019-01-11T00:27:16.537Z,1018.48
2019-01-11T00:28:16.523Z,1018.50
2019-01-11T00:29:16.516Z,1018.48
2019-01-11T00:30:16.523Z,1018.48
2019-01-11T00:31:16.493Z,1018.50
2019-01-11T00:32:16.488Z,1018.53
2019-01-11T00:33:16.473Z,1018.47
2019-01-11T00:34:16.457Z,1018.49
2019-01-11T00:35:16.480Z,1018.47
2019-01-11T00:36:16.435Z,1018.50
2019-01-11T00:37:16.427Z,1018.44
2019-01-11T00:38:16.412Z,1018.45
2019-01-11T00:39:16.417Z,1018.48
2019-01-11T00:40:16.411Z,1018.46
2019-01-11T00:41:16.414Z,1018.44
2019-01-11T00:42:16.376Z,1018.47
2019-01-11T00:43:16.382Z,1018.43
2019-01-11T00:44:16.350Z,1018.45
2019-01-11T00:45:16.340Z,1018.42
2019-01-11T00:46:16.378Z,1018.42
2019-01-11T00:47:16.318Z,1018.45
2019-01-11T00:48:16.306Z,1018.43
2019-01-11T00:49:16.308Z,1018.46
2019-01-11T00:50:16.289Z,1018.43
2019-01-11T00:51:16.323Z,1018.42
2019-01-11T00:52:16.517Z,1018.42
2019-01-11T00:53:16.251Z,1018.33
2019-01-11T00:54:16.243Z,1018.35
2019-01-11T00:55:16.228Z,1018.33
2019-01-11T00:56:16.216Z,1018.33
2019-01-11T00:57:16.226Z,1018.29
2019-01-11T00:58:16.194Z,1018.28
2019-01-11T00:59:16.183Z,1018.28
2019-01-11T01:00:16.178Z,1018.28
2019-01-11T01:01:16.168Z,1018.27
2019-01-11T01:02:16.211Z,1018.26
2019-01-11T01:03:16.203Z,1018.28
2019-01-11T01:04:16.128Z,1018.27
2019-01-11T01:05:16.118Z,1018.24
2019-01-11T01:06:16.112Z,1018.19
2019-01-11T01:07:16.105Z,1018.21
2019-01-11T01:08:16.137Z,1018.22
2019-01-11T01:09:16.075Z,1018.18
2019-01-11T01:10:16.067Z,1018.22
2019-01-11T01:11:16.050Z,1018.20
2019-01-11T01:12:16.039Z,1018.22
2019-01-11T01:13:16.043Z,1018.17
2019-01-11T01:14:16.036Z,1018.17
2019-01-11T01:15:16.008Z,1018.17
2019-01-11T01:16:15.996Z,1018.16
2019-01-11T01:17:15.986Z,1018.16
2019-01-11T01:18:15.973Z,1018.14
2019-01-11T01:19:19.955Z,1018.16
2019-01-11T01:20:15.952Z,1018.13
2019-01-11T01:21:15.943Z,1018.11
2019-01-11T01:22:15.937Z,1018.12
2019-01-11T01:23:15.927Z,1018.12
2019-01-11T01:24:15.914Z,1018.17
2019-01-11T01:25:15.955Z,1018.18
2019-01-11T01:26:15.895Z,1018.19
2019-01-11T01:27:15.901Z,1018.19
2019-01-11T01:28:15.864Z,1018.15
2019-01-11T01:29:15.859Z,1018.18
2019-01-11T01:30:15.848Z,1018.15
2019-01-11T01:31:15.852Z,1018.17
2019-01-11T01:32:15.829Z,1018.16
2019-01-11T01:33:15.817Z,1018.15
2019-01-11T01:34:15.805Z,1018.14
2019-01-11T01:35:15.795Z,1018.15
2019-01-11T01:36:15.819Z,1018.11
2019-01-11T01:37:15.777Z,1018.16
2019-01-11T01:38:15.764Z,1018.12
2019-01-11T01:39:15.745Z,1018.11
2019-01-11T01:40:15.744Z,1018.10
2019-01-11T01:41:15.760Z,1018.11
2019-01-11T01:42:15.744Z,1018.09
2019-01-11T01:43:15.703Z,1018.08
2019-01-11T01:44:15.689Z,1018.04
2019-01-11T01:45:15.681Z,1017.97
2019-01-11T01:46:15.702Z,1018.00
2019-01-11T01:47:15.662Z,1018.02
2019-01-11T01:48:15.646Z,1018.02
2019-01-11T01:49:15.636Z,1018.00
2019-01-11T01:50:15.650Z,1018.02
2019-01-11T01:51:15.619Z,1018.01
2019-01-11T01:52:15.622Z,1018.07
2019-01-11T01:53:15.593Z,1018.00
2019-01-11T01:54:15.584Z,1018.02
2019-01-11T01:55:15.574Z,1018.04
2019-01-11T01:56:15.580Z,1018.03
2019-01-11T01:57:15.568Z,1018.01
2019-01-11T01:58:15.538Z,1018.01
2019-01-11T01:59:15.532Z,1017.96
2019-01-11T02:00:15.515Z,1017.96
2019-01-11T02:01:15.508Z,1017.97
2019-01-11T02:02:15.528Z,1017.94
2019-01-11T02:03:15.482Z,1017.93
2019-01-11T02:04:15.478Z,1017.93
2019-01-11T02:05:15.472Z,1017.89
2019-01-11T02:06:15.449Z,1017.88
2019-01-11T02:07:15.443Z,1017.85
2019-01-11T02:08:15.471Z,1017.89
2019-01-11T02:09:15.418Z,1017.91
2019-01-11T02:10:15.406Z,1017.87
2019-01-11T02:11:15.549Z,1017.90
2019-01-11T02:12:15.392Z,1017.89
2019-01-11T02:13:15.398Z,1017.81
2019-01-11T02:14:15.366Z,1017.84
2019-01-11T02:15:15.352Z,1017.85
2019-01-11T02:16:15.340Z,1017.84
2019-01-11T02:17:15.335Z,1017.83
2019-01-11T02:18:15.328Z,1017.84
2019-01-11T02:19:15.309Z,1017.82
2019-01-11T02:20:15.300Z,1017.85
2019-01-11T02:21:15.283Z,1017.83
2019-01-11T02:22:15.274Z,1017.78
2019-01-11T02:23:15.291Z,1017.77
2019-01-11T02:24:15.259Z,1017.73
2019-01-11T02:25:15.246Z,1017.75
2019-01-11T02:26:15.234Z,1017.72
2019-01-11T02:27:15.223Z,1017.72
2019-01-11T02:28:15.212Z,1017.70
2019-01-11T02:29:15.220Z,1017.68
2019-01-11T02:30:15.186Z,1017.68
2019-01-11T02:31:15.179Z,1017.61
2019-01-11T02:32:15.164Z,1017.64
2019-01-11T02:33:15.157Z,1017.67
2019-01-11T02:34:15.167Z,1017.61
2019-01-11T02:35:15.143Z,1017.60
2019-01-11T02:36:15.147Z,1017.57
2019-01-11T02:37:15.116Z,1017.58
2019-01-11T02:38:15.105Z,1017.56
2019-01-11T02:39:15.111Z,1017.52
2019-01-11T02:40:15.094Z,1017.57
2019-01-11T02:41:15.084Z,1017.52
2019-01-11T02:42:15.081Z,1017.50
2019-01-11T02:43:15.049Z,1017.49
2019-01-11T02:44:15.039Z,1017.48
2019-01-11T02:45:15.044Z,1017.50
2019-01-11T02:46:15.016Z,1017.46
2019-01-11T02:47:15.008Z,1017.47
2019-01-11T02:48:14.989Z,1017.48
2019-01-11T02:49:14.984Z,1017.45
2019-01-11T02:50:15.017Z,1017.47
2019-01-11T02:51:14.966Z,1017.44
2019-01-11T02:52:14.954Z,1017.38
2019-01-11T02:53:14.942Z,1017.40
2019-01-11T02:54:14.931Z,1017.35
2019-01-11T02:55:14.923Z,1017.33
2019-01-11T02:56:14.928Z,1017.36
2019-01-11T02:57:14.904Z,1017.33
2019-01-11T02:58:14.881Z,1017.27
2019-01-11T02:59:14.873Z,1017.30
2019-01-11T03:00:14.863Z,1017.27
2019-01-11T03:01:21.959Z,1017.27
2019-01-11T03:02:14.868Z,1017.23
2019-01-11T03:03:14.841Z,1017.17
2019-01-11T03:04:14.820Z,1017.14
2019-01-11T03:05:14.804Z,1017.16
2019-01-11T03:06:14.791Z,1017.11
2019-01-11T03:07:14.800Z,1017.12
2019-01-11T03:08:14.777Z,1017.09
2019-01-11T03:09:14.783Z,1017.04
2019-01-11T03:10:14.750Z,1017.04
2019-01-11T03:11:14.737Z,1017.03
2019-01-11T03:12:14.755Z,1017.04
2019-01-11T03:13:15.338Z,1017.01
2019-01-11T03:14:15.332Z,1016.95
2019-01-11T03:15:14.743Z,1016.96
2019-01-11T03:16:14.688Z,1016.99
2019-01-11T03:17:14.672Z,1016.91
2019-01-11T03:18:14.661Z,1016.91
2019-01-11T03:19:14.658Z,1016.87
2019-01-11T03:20:14.651Z,1016.91
2019-01-11T03:21:14.657Z,1016.83
2019-01-11T03:22:14.628Z,1016.84
2019-01-11T03:23:14.611Z,1016.80
2019-01-11T03:24:14.638Z,1016.81
2019-01-11T03:25:14.588Z,1016.73
2019-01-11T03:26:14.577Z,1016.73
2019-01-11T03:27:14.569Z,1016.80
2019-01-11T03:28:14.552Z,1016.67
2019-01-11T03:29:14.546Z,1016.70
2019-01-11T03:30:14.546Z,1016.66
2019-01-11T03:31:14.561Z,1016.63
2019-01-11T03:32:14.525Z,1016.64
2019-01-11T03:33:14.495Z,1016.66
2019-01-11T03:34:14.483Z,1016.58
2019-01-11T03:35:14.471Z,1016.57
2019-01-11T03:36:14.460Z,1016.52
2019-01-11T03:37:14.462Z,1016.55
2019-01-11T03:38:14.445Z,1016.50
2019-01-11T03:39:14.430Z,1016.57
2019-01-11T03:40:14.434Z,1016.50
2019-01-11T03:41:14.404Z,1016.47
2019-01-11T03:42:14.426Z,1016.44
2019-01-11T03:43:14.390Z,1016.42
2019-01-11T03:44:14.377Z,1016.39
2019-01-11T03:45:14.370Z,1016.42
2019-01-11T03:46:14.357Z,1016.37
2019-01-11T03:47:14.356Z,1016.35
2019-01-11T03:48:14.415Z,1016.37
2019-01-11T03:49:14.323Z,1016.31
2019-01-11T03:50:14.308Z,1016.31
2019-01-11T03:51:14.314Z,1016.31
2019-01-11T03:52:14.327Z,1016.29
2019-01-11T03:53:14.279Z,1016.32
2019-01-11T03:54:14.268Z,1016.32
2019-01-11T03:55:14.256Z,1016.32
2019-01-11T03:56:14.241Z,1016.29
2019-01-11T03:57:14.230Z,1016.31
2019-01-11T03:58:14.239Z,1016.27
2019-01-11T03:59:14.845Z,1016.31
2019-01-11T04:00:14.843Z,1016.29
2019-01-11T04:01:14.192Z,1016.31
2019-01-11T04:02:14.177Z,1016.25
2019-01-11T04:03:14.268Z,1016.25
2019-01-11T04:04:14.161Z,1016.28
2019-01-11T04:05:14.154Z,1016.21
2019-01-11T04:06:14.138Z,1016.17
2019-01-11T04:07:14.132Z,1016.12
2019-01-11T04:08:14.115Z,1016.14
2019-01-11T04:09:14.117Z,1016.17
2019-01-11T04:10:14.092Z,1016.16
2019-01-11T04:11:14.081Z,1016.11
2019-01-11T04:12:14.073Z,1016.12
2019-01-11T04:13:14.070Z,1016.15
2019-01-11T04:14:14.087Z,1016.12
2019-01-11T04:15:14.036Z,1016.06
2019-01-11T04:16:14.039Z,1016.08
2019-01-11T04:17:14.016Z,1016.11
2019-01-11T04:18:14.840Z,1016.05
2019-01-11T04:19:14.048Z,1016.10
2019-01-11T04:20:13.985Z,1016.07
2019-01-11T04:21:13.966Z,1016.06
2019-01-11T04:22:13.964Z,1016.05
2019-01-11T04:23:13.951Z,1015.97
2019-01-11T04:24:13.938Z,1016.00
2019-01-11T04:25:13.967Z,1015.97
2019-01-11T04:26:13.914Z,1015.93
2019-01-11T04:27:13.906Z,1015.90
2019-01-11T04:28:13.891Z,1015.90
2019-01-11T04:29:13.885Z,1015.88
2019-01-11T04:30:13.881Z,1015.89
2019-01-11T04:31:13.885Z,1015.86
2019-01-11T04:32:13.849Z,1015.80
2019-01-11T04:33:13.842Z,1015.83
2019-01-11T04:34:13.833Z,1015.78
2019-01-11T04:35:13.817Z,1015.78
2019-01-11T04:36:13.831Z,1015.77
2019-01-11T04:37:13.790Z,1015.75
2019-01-11T04:38:13.784Z,1015.71
2019-01-11T04:39:13.783Z,1015.71
2019-01-11T04:40:13.766Z,1015.66
2019-01-11T04:41:13.791Z,1015.65
2019-01-11T04:42:13.747Z,1015.63
2019-01-11T04:43:13.726Z,1015.61
2019-01-11T04:44:13.714Z,1015.65
2019-01-11T04:45:13.708Z,1015.59
2019-01-11T04:46:13.700Z,1015.64
2019-01-11T04:47:15.434Z,1015.59
2019-01-11T04:48:13.672Z,1015.57
2019-01-11T04:49:13.667Z,1015.55
2019-01-11T04:50:13.652Z,1015.52
2019-01-11T04:51:13.642Z,1015.56
2019-01-11T04:52:13.649Z,1015.52
2019-01-11T04:53:13.628Z,1015.46
2019-01-11T04:54:13.606Z,1015.51
2019-01-11T04:55:13.597Z,1015.48
2019-01-11T04:56:13.583Z,1015.52
2019-01-11T04:57:13.613Z,1015.46
2019-01-11T04:58:13.562Z,1015.44
2019-01-11T04:59:13.555Z,1015.43
2019-01-11T05:00:13.541Z,1015.44
2019-01-11T05:01:13.535Z,1015.43
2019-01-11T05:02:13.544Z,1015.46
2019-01-11T05:03:13.520Z,1015.38
2019-01-11T05:04:13.523Z,1015.38
2019-01-11T05:05:13.493Z,1015.35
2019-01-11T05:06:13.479Z,1015.38
2019-01-11T05:07:13.469Z,1015.33
2019-01-11T05:08:13.490Z,1015.31
2019-01-11T05:09:13.444Z,1015.31
2019-01-11T05:10:13.439Z,1015.27
2019-01-11T05:11:14.725Z,1015.28
2019-01-11T05:12:13.408Z,1015.26
2019-01-11T05:13:13.451Z,1015.26
2019-01-11T05:14:13.394Z,1015.28
2019-01-11T05:15:13.383Z,1015.24
2019-01-11T05:16:13.377Z,1015.23
2019-01-11T05:17:13.364Z,1015.18
2019-01-11T05:18:13.344Z,1015.19
2019-01-11T05:19:13.370Z,1015.15
2019-01-11T05:20:16.858Z,1015.11
2019-01-11T05:21:13.325Z,1015.12
2019-01-11T05:22:13.335Z,1015.11
2019-01-11T05:23:13.289Z,1015.15
2019-01-11T05:24:13.428Z,1015.06
2019-01-11T05:25:13.270Z,1015.00
2019-01-11T05:26:13.259Z,1014.99
2019-01-11T05:27:13.252Z,1015.04
2019-01-11T05:28:13.245Z,1015.05
2019-01-11T05:29:13.234Z,1015.01
2019-01-11T05:30:13.257Z,1015.01
2019-01-11T05:31:13.228Z,1015.00
2019-01-11T05:32:13.196Z,1015.02
2019-01-11T05:33:13.225Z,1015.05
2019-01-11T05:34:13.234Z,1015.03
2019-01-11T05:35:13.859Z,1015.04
2019-01-11T05:36:13.155Z,1015.00
2019-01-11T05:37:13.145Z,1015.05
2019-01-11T05:38:13.133Z,1015.03
2019-01-11T05:39:13.122Z,1014.97
2019-01-11T05:40:13.125Z,1015.00
2019-01-11T05:41:13.117Z,1014.95
2019-01-11T05:42:13.088Z,1014.90
2019-01-11T05:43:13.089Z,1014.88
2019-01-11T05:44:13.065Z,1014.85
2019-01-11T05:45:13.102Z,1014.81
2019-01-11T05:46:13.052Z,1014.80
2019-01-11T05:47:13.035Z,1014.80
2019-01-11T05:48:13.026Z,1014.80
2019-01-11T05:49:13.013Z,1014.81
2019-01-11T05:50:13.012Z,1014.76
2019-01-11T05:51:13.025Z,1014.73
2019-01-11T05:52:12.980Z,1014.72
2019-01-11T05:53:12.967Z,1014.76
2019-01-11T05:54:12.976Z,1014.70
2019-01-11T05:55:12.957Z,1014.74
2019-01-11T05:56:12.941Z,1014.71
2019-01-11T05:57:12.934Z,1014.67
2019-01-11T05:58:12.941Z,1014.66
2019-01-11T05:59:12.905Z,1014.68
2019-01-11T06:00:12.890Z,1014.69
2019-01-11T06:01:12.881Z,1014.64
2019-01-11T06:02:12.870Z,1014.65
2019-01-11T06:03:12.896Z,1014.62
2019-01-11T06:04:12.871Z,1014.64
2019-01-11T06:05:12.843Z,1014.54
2019-01-11T06:06:12.826Z,1014.60
2019-01-11T06:07:12.821Z,1014.54
2019-01-11T06:08:12.808Z,1014.49
2019-01-11T06:09:12.818Z,1014.51
2019-01-11T06:10:12.785Z,1014.45
2019-01-11T06:11:12.771Z,1014.43
2019-01-11T06:12:12.821Z,1014.46
2019-01-11T06:13:12.798Z,1014.43
2019-01-11T06:14:12.746Z,1014.52
2019-01-11T06:15:12.749Z,1014.48
2019-01-11T06:16:12.719Z,1014.45
2019-01-11T06:17:12.707Z,1014.44
2019-01-11T06:18:12.700Z,1014.43
2019-01-11T06:19:12.732Z,1014.40
2019-01-11T06:20:12.674Z,1014.42
2019-01-11T06:21:12.676Z,1014.40
2019-01-11T06:22:12.651Z,1014.39
2019-01-11T06:23:12.644Z,1014.38
2019-01-11T06:24:12.635Z,1014.36
2019-01-11T06:25:12.662Z,1014.29
2019-01-11T06:26:12.648Z,1014.29
2019-01-11T06:27:12.598Z,1014.32
2019-01-11T06:28:12.601Z,1014.24
2019-01-11T06:29:12.578Z,1014.23
2019-01-11T06:30:12.570Z,1014.26
2019-01-11T06:31:12.594Z,1014.26
2019-01-11T06:32:13.367Z,1014.31
2019-01-11T06:33:12.544Z,1014.27
2019-01-11T06:34:12.528Z,1014.26
2019-01-11T06:35:12.514Z,1014.24
2019-01-11T06:36:12.505Z,1014.26
2019-01-11T06:37:12.509Z,1014.18
2019-01-11T06:38:12.483Z,1014.21
2019-01-11T06:39:12.485Z,1014.22
2019-01-11T06:40:12.464Z,1014.22
2019-01-11T06:41:12.504Z,1014.20
2019-01-11T06:42:12.435Z,1014.17
2019-01-11T06:43:12.426Z,1014.14
2019-01-11T06:44:12.418Z,1014.13
2019-01-11T06:45:12.411Z,1014.15
2019-01-11T06:46:12.390Z,1014.17
2019-01-11T06:47:12.397Z,1014.16
2019-01-11T06:48:12.397Z,1014.15
2019-01-11T06:49:12.365Z,1014.08
2019-01-11T06:50:12.354Z,1014.07
2019-01-11T06:51:12.347Z,1014.06
2019-01-11T06:52:12.341Z,1014.06
2019-01-11T06:53:12.360Z,1014.04
2019-01-11T06:54:12.310Z,1013.99
2019-01-11T06:55:12.301Z,1014.02
2019-01-11T06:56:12.289Z,1013.98
2019-01-11T06:57:12.295Z,1013.99
2019-01-11T06:58:12.269Z,1013.97
2019-01-11T06:59:12.253Z,1013.95
2019-01-11T07:00:12.287Z,1013.99
2019-01-11T07:01:12.227Z,1013.95
2019-01-11T07:02:12.222Z,1013.98
2019-01-11T07:03:12.232Z,1014.08
2019-01-11T07:04:12.211Z,1014.06
2019-01-11T07:05:12.868Z,1014.02
2019-01-11T07:06:12.867Z,1014.05
2019-01-11T07:07:12.163Z,1014.06
2019-01-11T07:08:12.225Z,1013.99
2019-01-11T07:09:12.140Z,1014.03
2019-01-11T07:10:12.169Z,1014.00
2019-01-11T07:11:12.130Z,1014.04
2019-01-11T07:12:12.115Z,1013.98
2019-01-11T07:13:12.097Z,1013.94
2019-01-11T07:14:12.093Z,1013.96
2019-01-11T07:15:12.074Z,1013.91
2019-01-11T07:16:12.074Z,1013.94
2019-01-11T07:17:12.060Z,1013.96
2019-01-11T07:18:12.069Z,1013.93
2019-01-11T07:19:12.033Z,1013.97
2019-01-11T07:20:12.037Z,1013.93
2019-01-11T07:21:12.024Z,1014.00
2019-01-11T07:22:12.022Z,1013.99
2019-01-11T07:23:12.001Z,1014.01
2019-01-11T07:24:12.023Z,1014.01
2019-01-11T07:25:11.977Z,1014.06
2019-01-11T07:26:11.989Z,1013.99
2019-01-11T07:27:11.975Z,1014.02
2019-01-11T07:28:13.750Z,1014.04
2019-01-11T07:29:11.928Z,1014.04
2019-01-11T07:30:11.941Z,1014.01
2019-01-11T07:31:12.038Z,1014.00
2019-01-11T07:32:11.891Z,1014.04
2019-01-11T07:33:11.887Z,1014.01
2019-01-11T07:34:11.888Z,1014.02
2019-01-11T07:35:11.907Z,1014.05
2019-01-11T07:36:11.909Z,1014.02
2019-01-11T07:37:11.838Z,1013.98
2019-01-11T07:38:12.839Z,1013.98
2019-01-11T07:39:11.937Z,1013.97
2019-01-11T07:40:11.996Z,1013.96
2019-01-11T07:41:11.811Z,1013.96
2019-01-11T07:42:11.884Z,1013.98
2019-01-11T07:43:11.782Z,1013.95
2019-01-11T07:44:11.776Z,1013.91
2019-01-11T07:45:11.770Z,1013.84
2019-01-11T07:46:11.744Z,1013.84
2019-01-11T07:47:11.811Z,1013.90
2019-01-11T07:48:11.881Z,1013.90
2019-01-11T07:49:11.739Z,1013.86
2019-01-11T07:50:11.711Z,1013.90
2019-01-11T07:51:12.370Z,1013.87
2019-01-11T07:52:11.688Z,1013.87
2019-01-11T07:53:12.371Z,1014.00
2019-01-11T07:54:11.753Z,1013.90
2019-01-11T07:55:11.663Z,1013.90
2019-01-11T07:56:11.636Z,1013.88
2019-01-11T07:57:11.624Z,1013.94
2019-01-11T07:58:11.610Z,1013.86
2019-01-11T07:59:11.649Z,1013.87
2019-01-11T08:00:11.588Z,1013.83
2019-01-11T08:01:11.591Z,1013.82
2019-01-11T08:02:11.573Z,1013.86
2019-01-11T08:03:11.556Z,1013.91
2019-01-11T08:04:11.552Z,1013.89
2019-01-11T08:05:11.564Z,1013.88
2019-01-11T08:06:11.520Z,1013.83
2019-01-11T08:07:11.530Z,1013.82
2019-01-11T08:08:11.500Z,1013.82
2019-01-11T08:09:11.501Z,1013.79
2019-01-11T08:10:11.490Z,1013.75
2019-01-11T08:11:11.475Z,1013.76
2019-01-11T08:12:11.473Z,1013.74
2019-01-11T08:13:11.453Z,1013.76
2019-01-11T08:14:11.461Z,1013.73
2019-01-11T08:15:11.424Z,1013.72
2019-01-11T08:16:11.447Z,1013.65
2019-01-11T08:17:11.408Z,1013.72
2019-01-11T08:18:11.401Z,1013.66
2019-01-11T08:19:11.391Z,1013.63
2019-01-11T08:20:11.427Z,1013.62
2019-01-11T08:21:11.873Z,1013.60
2019-01-11T08:22:11.357Z,1013.60
2019-01-11T08:23:11.359Z,1013.52
2019-01-11T08:24:11.335Z,1013.55
2019-01-11T08:25:11.315Z,1013.49
2019-01-11T08:26:11.332Z,1013.53
2019-01-11T08:27:11.293Z,1013.53
2019-01-11T08:28:11.289Z,1013.50
2019-01-11T08:29:11.276Z,1013.51
2019-01-11T08:30:11.273Z,1013.47
2019-01-11T08:31:11.285Z,1013.42
2019-01-11T08:32:11.242Z,1013.40
2019-01-11T08:33:11.232Z,1013.44
2019-01-11T08:34:11.225Z,1013.43
2019-01-11T08:35:11.210Z,1013.46
2019-01-11T08:36:11.411Z,1013.30
2019-01-11T08:37:11.876Z,1013.30
2019-01-11T08:38:11.199Z,1013.28
2019-01-11T08:39:11.166Z,1013.31
2019-01-11T08:40:11.165Z,1013.26
2019-01-11T08:41:11.146Z,1013.30
2019-01-11T08:42:11.131Z,1013.32
2019-01-11T08:43:11.166Z,1013.36
2019-01-11T08:44:11.116Z,1013.31
2019-01-11T08:45:11.100Z,1013.29
2019-01-11T08:46:11.094Z,1013.26
2019-01-11T08:47:11.080Z,1013.31
2019-01-11T08:48:11.070Z,1013.27
2019-01-11T08:49:11.082Z,1013.33
2019-01-11T08:50:11.042Z,1013.31
2019-01-11T08:51:11.034Z,1013.25
2019-01-11T08:52:11.032Z,1013.24
2019-01-11T08:53:11.008Z,1013.24
2019-01-11T08:54:11.022Z,1013.24
2019-01-11T08:55:10.985Z,1013.26
2019-01-11T08:56:10.979Z,1013.20
2019-01-11T08:57:10.965Z,1013.21
2019-01-11T08:58:10.957Z,1013.19
2019-01-11T08:59:10.949Z,1013.16
2019-01-11T09:00:10.948Z,1013.17
2019-01-11T09:01:10.925Z,1013.11
2019-01-11T09:02:10.908Z,1013.11
2019-01-11T09:03:10.935Z,1013.12
2019-01-11T09:04:10.887Z,1013.08
2019-01-11T09:05:10.885Z,1013.04
2019-01-11T09:06:10.871Z,1013.02
2019-01-11T09:07:10.853Z,1012.94
2019-01-11T09:08:10.847Z,1012.98
2019-01-11T09:09:10.861Z,1012.95
2019-01-11T09:10:10.850Z,1012.94
2019-01-11T09:11:10.814Z,1012.94
2019-01-11T09:12:10.797Z,1012.93
2019-01-11T09:13:10.821Z,1012.97
2019-01-11T09:14:10.810Z,1012.92
2019-01-11T09:15:10.831Z,1012.98
2019-01-11T09:16:10.806Z,1012.97
2019-01-11T09:17:10.747Z,1013.08
2019-01-11T09:18:11.346Z,1013.02
2019-01-11T09:19:10.724Z,1013.00
2019-01-11T09:20:10.710Z,1013.06
2019-01-11T09:21:11.506Z,1013.02
2019-01-11T09:22:10.924Z,1013.03
2019-01-11T09:23:10.734Z,1013.00
2019-01-11T09:24:10.664Z,1013.02
2019-01-11T09:25:10.653Z,1013.07
2019-01-11T09:26:10.716Z,1013.03
2019-01-11T09:27:10.656Z,1012.97
2019-01-11T09:28:10.621Z,1012.96
2019-01-11T09:29:10.610Z,1012.97
2019-01-11T09:30:10.658Z,1013.00
2019-01-11T09:31:10.604Z,1012.89
2019-01-11T09:32:10.584Z,1012.88
2019-01-11T09:33:10.565Z,1012.80
2019-01-11T09:34:10.563Z,1012.77
2019-01-11T09:35:10.547Z,1012.81
2019-01-11T09:36:10.548Z,1012.82
2019-01-11T09:37:10.522Z,1012.73
2019-01-11T09:38:10.592Z,1012.73
2019-01-11T09:39:10.500Z,1012.73
2019-01-11T09:40:10.497Z,1012.67
2019-01-11T09:41:10.483Z,1012.69
2019-01-11T09:42:10.469Z,1012.70
2019-01-11T09:43:10.481Z,1012.69
2019-01-11T09:44:10.453Z,1012.65
2019-01-11T09:45:10.442Z,1012.64
2019-01-11T09:46:10.437Z,1012.60
2019-01-11T09:47:10.475Z,1012.68
2019-01-11T09:48:10.400Z,1012.59
2019-01-11T09:49:10.395Z,1012.60
2019-01-11T09:50:10.388Z,1012.56
2019-01-11T09:51:15.706Z,1012.62
2019-01-11T09:52:11.382Z,1012.59
2019-01-11T09:53:10.394Z,1012.61
2019-01-11T09:54:10.373Z,1012.63
2019-01-11T09:55:10.399Z,1012.60
2019-01-11T09:56:10.318Z,1012.58
2019-01-11T09:57:10.315Z,1012.59
2019-01-11T09:58:10.295Z,1012.57
2019-01-11T09:59:10.346Z,1012.58
2019-01-11T10:00:10.284Z,1012.53
2019-01-11T10:01:10.848Z,1012.53
2019-01-11T10:02:10.246Z,1012.50
2019-01-11T10:03:10.248Z,1012.55
2019-01-11T10:04:10.290Z,1012.49
2019-01-11T10:05:10.219Z,1012.53
2019-01-11T10:06:10.207Z,1012.50
2019-01-11T10:07:10.322Z,1012.53
2019-01-11T10:08:10.183Z,1012.55
2019-01-11T10:09:10.195Z,1012.51
2019-01-11T10:10:10.200Z,1012.51
2019-01-11T10:11:10.151Z,1012.41
2019-01-11T10:12:10.140Z,1012.46
2019-01-11T10:13:10.201Z,1012.39
2019-01-11T10:14:10.118Z,1012.32
2019-01-11T10:15:10.142Z,1012.32
2019-01-11T10:16:10.097Z,1012.33
2019-01-11T10:17:10.080Z,1012.33
2019-01-11T10:18:10.073Z,1012.26
2019-01-11T10:19:10.071Z,1012.26
2019-01-11T10:20:10.053Z,1012.20
2019-01-11T10:21:10.065Z,1012.20
2019-01-11T10:22:10.072Z,1012.17
2019-01-11T10:23:10.020Z,1012.15
2019-01-11T10:24:10.006Z,1012.13
2019-01-11T10:25:09.995Z,1012.12
2019-01-11T10:26:09.987Z,1012.11
2019-01-11T10:27:09.988Z,1012.08
2019-01-11T10:28:09.982Z,1012.08
2019-01-11T10:29:09.960Z,1012.10
2019-01-11T10:30:09.937Z,1012.13
2019-01-11T10:31:09.925Z,1012.08
2019-01-11T10:32:09.948Z,1012.03
2019-01-11T10:33:09.931Z,1012.02
2019-01-11T10:34:09.895Z,1011.98
2019-01-11T10:35:09.883Z,1011.93
2019-01-11T10:36:09.871Z,1011.90
2019-01-11T10:37:09.870Z,1011.86
2019-01-11T10:38:09.881Z,1011.87
2019-01-11T10:39:09.841Z,1011.82
2019-01-11T10:40:09.830Z,1011.78
2019-01-11T10:41:09.834Z,1011.78
2019-01-11T10:42:09.807Z,1011.79
2019-01-11T10:43:09.854Z,1011.79
2019-01-11T10:44:09.791Z,1011.76
2019-01-11T10:45:09.773Z,1011.68
2019-01-11T10:46:09.763Z,1011.70
2019-01-11T10:47:09.750Z,1011.69
2019-01-11T10:48:09.744Z,1011.67
2019-01-11T10:49:09.761Z,1011.65
2019-01-11T10:50:09.714Z,1011.64
2019-01-11T10:51:09.706Z,1011.62
2019-01-11T10:52:09.698Z,1011.65
2019-01-11T10:53:09.687Z,1011.69
2019-01-11T10:54:09.696Z,1011.64
2019-01-11T10:55:09.669Z,1011.59
2019-01-11T10:56:09.669Z,1011.64
2019-01-11T10:57:09.677Z,1011.59
2019-01-11T10:58:09.626Z,1011.56
2019-01-11T10:59:09.738Z,1011.54
2019-01-11T11:00:09.641Z,1011.52
2019-01-11T11:01:09.607Z,1011.54
2019-01-11T11:02:09.589Z,1011.53
2019-01-11T11:03:09.618Z,1011.51
2019-01-11T11:04:09.559Z,1011.51
2019-01-11T11:05:09.552Z,1011.54
2019-01-11T11:06:09.547Z,1011.56
2019-01-11T11:07:09.531Z,1011.51
2019-01-11T11:08:09.515Z,1011.52
2019-01-11T11:09:09.505Z,1011.54
2019-01-11T11:10:09.495Z,1011.51
2019-01-11T11:11:09.512Z,1011.50
2019-01-11T11:12:09.476Z,1011.47
2019-01-11T11:13:09.468Z,1011.40
2019-01-11T11:14:09.459Z,1011.45
2019-01-11T11:15:09.440Z,1011.36
2019-01-11T11:16:09.477Z,1011.35
2019-01-11T11:17:09.426Z,1011.34
2019-01-11T11:18:09.413Z,1011.36
2019-01-11T11:19:09.420Z,1011.30
2019-01-11T11:20:09.384Z,1011.33
2019-01-11T11:21:09.372Z,1011.29
2019-01-11T11:22:09.393Z,1011.23
2019-01-11T11:23:09.380Z,1011.23
2019-01-11T11:24:09.354Z,1011.21
2019-01-11T11:25:09.328Z,1011.19
2019-01-11T11:26:09.317Z,1011.17
2019-01-11T11:27:09.306Z,1011.09
2019-01-11T11:28:09.299Z,1011.05
2019-01-11T11:29:10.278Z,1011.12
2019-01-11T11:30:09.289Z,1011.03
2019-01-11T11:31:09.267Z,1010.98
2019-01-11T11:32:09.289Z,1010.99
2019-01-11T11:33:09.251Z,1010.96
2019-01-11T11:34:09.273Z,1010.94
2019-01-11T11:35:09.225Z,1010.95
2019-01-11T11:36:09.208Z,1010.91
2019-01-11T11:37:09.201Z,1010.92
2019-01-11T11:38:09.189Z,1010.89
2019-01-11T11:39:09.241Z,1010.89
2019-01-11T11:40:09.176Z,1010.87
2019-01-11T11:41:09.156Z,1010.83
2019-01-11T11:42:09.150Z,1010.87
2019-01-11T11:43:09.130Z,1010.83
2019-01-11T11:44:09.150Z,1010.81
2019-01-11T11:45:09.184Z,1010.84
2019-01-11T11:46:09.104Z,1010.77
2019-01-11T11:47:09.093Z,1010.75
2019-01-11T11:48:09.091Z,1010.72
2019-01-11T11:49:09.066Z,1010.73
2019-01-11T11:50:09.059Z,1010.77
2019-01-11T11:51:09.078Z,1010.72
2019-01-11T11:52:09.096Z,1010.67
2019-01-11T11:53:09.035Z,1010.62
2019-01-11T11:54:09.010Z,1010.61
2019-01-11T11:55:09.002Z,1010.50
2019-01-11T11:56:09.014Z,1010.48
2019-01-11T11:57:09.000Z,1010.48
2019-01-11T11:58:08.972Z,1010.47
2019-01-11T11:59:08.982Z,1010.47
2019-01-11T12:00:08.944Z,1010.44
2019-01-11T12:01:08.965Z,1010.43
2019-01-11T12:02:08.922Z,1010.42
2019-01-11T12:03:08.913Z,1010.43
2019-01-11T12:04:08.912Z,1010.36
2019-01-11T12:05:08.895Z,1010.30